Date,TemperatureHighF,TemperatureAvgF,TemperatureLowF,DewpointHighF,DewpointAvgF,DewpointLowF,HumidityHigh,HumidityAvg,HumidityLow,PressureMaxIn,PressureMinIn,WindSpeedMaxMPH,WindSpeedAvgMPH,GustSpeedMaxMPH,PrecipitationSumIn
2012-1-1,50.5,39.6,29.2,45.0,37.0,29.0,100,91,68,30.10,29.64,6,1,0,0.18
2012-1-2,45.0,36.3,28.6,45.0,25.1,19.0,98,65,48,29.77,29.62,7,1,0,0.02
2012-1-3,28.6,21.3,10.9,23.0,9.8,-1.0,81,62,50,30.12,29.76,7,1,0,0.00
2012-1-4,23.2,15.7,7.9,13.0,4.6,-2.0,75,62,43,30.21,29.96,5,0,0,0.00
2012-1-5,37.6,28.5,19.2,24.0,19.4,13.0,80,69,55,29.95,29.81,5,0,0,0.00
2012-1-6,46.0,34.9,25.7,31.0,27.3,23.0,90,75,55,29.94,29.71,2,0,0,0.00
2012-1-7,57.8,40.8,26.7,37.0,31.3,26.0,98,72,44,29.95,29.68,6,0,0,0.00
2012-1-8,41.6,35.9,26.5,29.0,23.8,18.0,84,63,51,30.30,29.95,7,1,0,0.00
2012-1-9,39.3,29.1,20.5,25.0,18.6,13.0,90,67,34,30.31,29.98,6,0,0,0.00
2012-1-10,43.7,34.2,23.6,30.0,26.3,22.0,94,74,58,29.99,29.82,6,1,0,0.00
2012-1-11,44.0,34.3,22.5,35.0,27.6,21.0,96,78,56,30.10,29.90,4,0,0,0.04
2012-1-12,39.5,36.8,35.0,38.0,35.8,34.0,98,96,91,29.89,29.45,8,3,0,0.61
2012-1-13,46.0,33.4,26.1,46.0,27.6,14.0,100,80,58,29.74,29.22,6,2,0,0.03
2012-1-14,31.0,26.5,20.8,18.0,14.9,8.0,72,62,53,30.06,29.73,5,1,0,0.00
2012-1-15,20.5,13.9,7.8,9.0,-1.2,-8.0,73,52,36,30.58,30.06,8,1,0,0.00
2012-1-16,31.4,19.2,6.0,29.0,8.9,-3.0,96,66,38,30.61,30.16,5,1,0,0.01
2012-1-17,43.1,35.8,30.0,43.0,35.1,29.0,100,97,94,30.14,29.52,2,0,0,0.32
2012-1-18,45.1,32.2,18.1,43.0,18.9,6.0,100,59,47,30.16,29.52,9,3,0,0.01
2012-1-19,29.5,22.1,10.5,27.0,14.8,7.0,93,74,47,30.26,29.93,7,0,0,0.00
2012-1-20,30.5,24.5,20.0,25.0,12.7,6.0,85,62,46,30.30,29.93,6,1,0,0.00
2012-1-21,22.8,18.9,14.6,20.0,14.5,5.0,100,83,53,30.32,30.03,6,1,0,0.00
2012-1-22,28.8,19.4,4.1,24.0,14.9,2.0,94,83,71,30.55,30.33,6,0,0,0.04
2012-1-23,48.4,36.1,28.4,48.0,35.1,24.0,100,96,84,30.45,29.87,6,1,0,0.44
2012-1-24,48.7,42.4,36.6,48.0,38.6,32.0,100,87,69,30.10,29.87,4,1,0,0.01
2012-1-25,40.3,35.7,31.6,32.0,27.6,26.0,86,73,63,30.29,30.11,5,1,0,0.00
2012-1-26,36.0,32.9,29.9,36.0,29.5,26.0,99,87,76,30.22,29.85,2,0,0,0.32
2012-1-27,49.9,41.4,36.2,50.0,39.3,32.0,100,92,73,29.84,29.32,13,1,0,0.34
2012-1-28,44.0,37.1,28.9,32.0,29.0,24.0,92,73,57,30.01,29.78,6,1,0,0.06
2012-1-29,41.0,34.4,28.5,24.0,18.4,14.0,76,53,41,30.15,29.98,5,0,0,0.00
2012-1-30,35.3,31.2,25.6,24.0,18.9,15.0,77,61,45,30.29,29.96,5,1,0,0.00
2012-1-31,55.5,40.0,27.0,34.0,27.5,20.0,79,63,40,30.24,29.99,6,0,0,0.00
2012-2-1,59.3,48.5,38.3,46.0,39.1,33.0,92,71,56,30.00,29.82,8,1,0,0.04
2012-2-2,40.7,34.8,28.8,34.0,28.9,23.0,96,80,66,30.24,29.98,7,1,0,0.00
2012-2-3,39.2,30.9,23.4,24.0,19.9,16.0,77,64,46,30.44,30.24,6,1,0,0.00
2012-2-4,43.9,35.6,28.7,28.0,24.7,22.0,86,66,46,30.31,30.11,5,1,0,0.00
2012-2-5,34.8,28.5,20.6,22.0,18.5,16.0,87,67,49,30.17,30.10,9,1,0,0.00
2012-2-6,50.4,34.0,18.4,29.0,23.8,16.0,93,70,38,30.15,29.93,5,1,0,0.00
2012-2-7,45.0,34.5,24.9,30.0,26.4,22.0,93,74,53,30.24,29.93,8,1,0,0.00
2012-2-8,35.5,30.0,25.0,23.0,14.4,7.0,73,54,31,30.32,30.09,4,0,0,0.00
2012-2-9,43.0,30.5,21.7,27.0,21.2,18.0,95,71,37,30.13,0.00,5,0,0,0.00
2012-2-10,44.2,33.1,22.1,25.0,23.0,19.0,98,69,46,30.13,29.90,4,0,0,0.00
2012-2-11,37.0,32.8,24.9,30.0,25.6,17.0,94,75,65,29.90,29.55,8,1,0,0.02
2012-2-12,28.8,22.4,13.3,18.0,8.5,-2.0,72,56,43,29.93,29.67,8,2,0,0.00
2012-2-13,42.1,31.4,21.2,20.0,16.8,12.0,80,57,33,30.01,29.89,8,1,0,0.00
2012-2-14,43.7,35.6,29.7,32.0,20.6,17.0,92,56,36,30.10,30.00,2,0,0,0.03
2012-2-15,42.9,36.5,31.6,39.0,33.4,29.0,99,89,77,30.27,30.07,3,0,0,0.03
2012-2-16,38.5,32.0,24.3,38.0,30.9,23.0,99,96,83,30.30,30.01,3,0,0,0.26
2012-2-17,47.8,40.0,30.2,40.0,32.9,22.0,100,78,46,30.01,29.91,7,1,0,0.08
2012-2-18,44.2,35.7,28.9,34.0,26.3,23.0,95,71,44,30.07,29.87,5,1,0,0.02
2012-2-19,42.5,34.0,29.5,30.0,22.9,19.0,96,66,42,30.09,29.97,9,2,0,0.00
2012-2-20,38.8,30.1,23.5,22.0,18.3,14.0,81,63,38,30.34,30.00,11,2,0,0.00
2012-2-21,41.6,31.1,17.3,37.0,24.7,15.0,94,78,51,30.37,29.85,7,1,0,0.00
2012-2-22,55.2,43.6,32.7,38.0,33.8,29.0,97,72,39,29.84,29.47,7,1,0,0.00
2012-2-23,52.4,42.1,32.0,42.0,33.1,26.0,98,73,40,29.77,29.36,6,1,0,0.00
2012-2-24,35.8,33.9,32.2,36.0,32.8,27.0,99,95,80,29.75,29.33,5,0,0,0.52
2012-2-25,40.3,35.8,29.0,34.0,22.8,12.0,90,60,47,29.97,29.36,20,4,0,0.24
2012-2-26,39.6,30.8,23.9,20.0,15.7,12.0,82,55,36,30.44,29.98,8,1,0,0.04
2012-2-27,53.3,37.2,20.2,36.0,28.8,18.0,92,73,45,30.43,30.06,5,1,0,0.03
2012-2-28,46.7,39.5,30.9,32.0,23.6,19.0,73,54,36,30.39,30.12,9,2,0,0.00
2012-2-29,36.6,32.5,29.7,32.0,27.9,22.0,97,84,59,30.37,29.79,6,1,0,0.09
2012-3-1,35.2,33.5,30.3,35.0,32.3,27.0,97,95,88,29.98,29.66,5,1,0,0.33
2012-3-2,35.9,31.5,27.3,34.0,28.7,24.0,96,89,83,30.13,29.84,5,1,0,0.11
2012-3-3,54.7,41.7,34.9,48.0,35.9,20.0,100,85,29,29.82,29.41,6,1,0,0.29
2012-3-4,42.8,36.9,30.8,27.0,21.7,19.0,78,55,39,29.71,29.55,5,1,0,0.00
2012-3-5,38.4,30.5,22.5,20.0,11.8,4.0,68,48,24,30.36,29.71,6,2,0,0.00
2012-3-6,41.3,27.1,16.2,25.0,13.4,7.0,84,59,31,30.62,30.37,7,1,0,0.00
2012-3-7,59.8,42.0,26.5,40.0,31.1,23.0,92,68,37,30.57,30.29,5,1,0,0.00
2012-3-8,68.1,56.5,38.7,52.0,47.4,37.0,99,73,55,30.29,29.75,7,2,0,0.00
2012-3-9,60.4,40.4,32.2,51.0,26.4,18.0,92,60,34,30.22,29.74,10,2,0,0.06
2012-3-10,39.7,31.5,25.4,19.0,15.1,9.0,76,52,38,30.52,30.23,9,1,0,0.00
2012-3-11,59.3,41.4,23.0,31.0,24.5,19.0,88,55,32,30.52,30.29,5,1,0,0.00
2012-3-12,70.4,50.8,30.6,40.0,33.6,28.0,90,57,25,30.32,30.11,5,0,0,0.00
2012-3-13,72.6,59.0,49.4,58.0,51.4,40.0,97,77,59,30.11,29.87,9,1,0,0.03
2012-3-14,66.4,54.5,41.5,52.0,36.3,24.0,98,58,22,30.19,29.92,9,1,0,0.00
2012-3-15,51.2,44.0,38.7,42.0,39.0,32.0,95,83,68,30.31,30.20,4,0,0,0.00
2012-3-16,48.8,42.8,39.2,46.0,41.2,38.0,98,94,88,30.30,30.10,2,0,0,0.00
2012-3-17,66.2,50.1,35.8,49.0,43.7,36.0,100,81,48,30.35,30.18,4,0,0,0.01
2012-3-18,69.4,52.4,40.6,53.0,47.2,39.0,98,84,56,30.35,30.17,5,1,0,0.00
2012-3-19,78.3,57.8,40.0,58.0,49.6,39.0,100,77,47,30.21,30.12,2,0,0,0.00
2012-3-20,74.1,59.9,44.8,61.0,52.4,43.0,97,78,51,30.31,30.21,5,0,0,0.00
2012-3-21,69.4,60.4,53.4,61.0,57.5,52.0,100,90,72,30.35,30.25,4,0,0,0.00
2012-3-22,79.1,64.4,55.3,60.0,57.4,55.0,100,81,49,30.27,30.04,7,1,0,0.00
2012-3-23,75.4,62.2,51.5,59.0,52.0,42.0,100,73,35,30.10,30.01,5,1,0,0.00
2012-3-24,60.8,54.9,48.3,50.0,33.2,23.0,89,47,27,30.08,29.98,5,0,0,0.00
2012-3-25,52.1,45.4,38.8,44.0,38.7,30.0,92,78,49,29.98,29.71,2,0,0,0.08
2012-3-26,48.6,40.7,31.4,43.0,24.4,5.0,99,58,29,30.09,29.66,12,3,0,0.00
2012-3-27,45.3,33.6,25.4,17.0,4.8,2.0,52,31,17,30.27,30.09,12,3,0,0.00
2012-3-28,60.2,43.0,30.6,47.0,33.0,16.0,97,69,48,30.15,29.53,7,0,0,0.23
2012-3-29,52.2,46.6,40.5,47.0,36.7,28.0,87,69,60,29.97,29.57,9,2,0,0.02
2012-3-30,52.7,43.0,32.0,33.0,23.2,15.0,70,49,24,30.05,29.94,7,1,0,0.00
2012-3-31,44.2,38.3,35.2,37.0,35.8,32.0,97,91,62,30.00,29.88,4,0,0,0.24
2012-4-1,48.6,42.5,37.2,43.0,39.0,36.0,98,88,69,29.90,29.64,5,0,0,0.10
2012-4-2,53.3,44.3,36.5,41.0,29.4,20.0,96,61,30,29.85,29.60,11,3,0,0.09
2012-4-3,60.3,44.1,26.4,30.0,20.0,12.0,89,46,15,29.91,29.74,9,2,0,0.01
2012-4-4,65.1,51.3,37.7,34.0,28.9,21.0,83,46,21,29.75,29.50,15,2,0,0.00
2012-4-5,52.3,43.4,33.5,31.0,27.2,24.0,80,55,38,29.93,29.71,14,2,0,0.00
2012-4-6,52.5,40.8,27.4,28.0,22.9,19.0,88,53,28,30.02,29.90,12,1,0,0.00
2012-4-7,56.6,44.9,28.3,27.0,22.6,17.0,82,45,22,30.06,29.94,11,2,0,0.00
2012-4-8,62.6,49.1,32.1,35.0,25.4,19.0,77,43,22,30.00,29.63,8,2,0,0.00
2012-4-9,60.0,52.3,45.4,35.0,25.5,19.0,53,37,21,29.69,29.57,10,3,0,0.00
2012-4-10,59.0,49.5,39.6,34.0,29.0,23.0,72,46,33,29.76,29.61,8,1,0,0.00
2012-4-11,51.5,44.2,35.8,37.0,32.6,28.0,88,66,42,29.89,29.75,5,1,0,0.01
2012-4-12,57.5,47.2,38.1,37.0,34.2,28.0,86,63,33,30.10,29.89,9,2,0,0.00
2012-4-13,62.9,50.3,36.3,35.0,31.0,26.0,84,52,26,30.19,30.07,8,1,0,0.00
2012-4-14,71.3,53.9,32.9,47.0,33.1,28.0,90,52,21,30.20,29.99,6,1,0,0.00
2012-4-15,75.7,63.3,53.9,59.0,53.9,44.0,90,72,52,30.00,29.91,5,0,0,0.01
2012-4-16,80.9,58.4,51.7,61.0,54.6,51.0,100,89,50,29.99,29.96,1,0,0,0.00
2012-6-26,66.5,63.3,60.0,55.0,53.8,52.0,81,71,63,29.73,29.70,1,0,0,0.01
2012-6-27,82.0,66.2,51.6,57.0,52.4,45.0,99,66,28,29.79,29.66,3,0,0,0.00
2012-6-28,87.2,70.3,54.2,68.0,60.4,53.0,97,74,43,29.80,29.68,1,0,0,0.00
2012-6-29,92.6,76.9,64.8,79.0,70.5,63.0,100,82,58,29.70,29.58,2,0,0,0.00
2012-6-30,91.3,74.6,63.3,71.0,67.0,62.0,99,80,40,29.75,29.65,5,0,0,0.00
2012-7-1,91.8,76.3,63.3,76.0,67.4,62.0,100,76,52,29.84,29.73,2,0,0,0.00
2012-7-2,85.1,71.7,59.3,66.0,62.1,58.0,97,75,44,29.90,29.83,2,0,0,0.00
2012-7-3,87.0,72.3,57.6,72.0,63.6,57.0,99,77,45,29.93,29.80,1,0,0,0.00
2012-7-4,89.3,76.6,68.1,78.0,71.5,65.0,100,85,61,29.81,29.68,2,0,0,0.00
2012-7-5,86.4,75.7,66.8,73.0,69.4,65.0,100,82,54,29.85,29.69,3,0,0,0.00
2012-7-6,89.9,74.4,61.1,72.0,66.0,60.0,100,78,42,29.92,29.82,1,0,0,0.00
2012-7-7,89.7,75.0,66.7,75.0,70.4,66.0,99,87,56,29.86,29.74,2,0,0,0.00
2012-7-8,90.2,76.7,65.4,71.0,67.8,64.0,99,77,44,29.86,29.77,2,0,0,0.00
2012-7-9,83.1,71.6,60.6,66.0,61.3,58.0,93,72,45,29.97,29.85,5,0,0,0.00
2012-7-10,85.6,70.9,56.6,65.0,59.4,55.0,95,71,39,30.06,29.96,1,0,0,0.00
2012-7-11,83.6,71.7,62.0,72.0,66.0,62.0,100,83,58,30.17,30.06,2,0,0,0.00
2012-7-12,88.5,74.2,62.8,70.0,64.9,62.0,99,75,49,30.18,30.09,4,0,0,0.00
2012-7-13,85.6,74.4,63.2,74.0,68.1,62.0,97,81,64,30.18,30.11,4,0,0,0.00
2012-7-14,88.8,76.4,67.1,72.0,68.0,65.0,100,77,48,30.17,30.08,2,0,0,0.04
2012-7-15,83.4,72.0,64.9,76.0,69.5,64.0,100,92,75,30.12,29.89,2,0,0,1.60
2012-7-16,88.2,75.7,68.4,76.0,71.6,68.0,100,88,60,29.89,29.75,1,0,0,0.11
2012-7-17,92.0,78.7,67.0,78.0,71.9,67.0,100,82,56,29.81,29.68,4,0,0,0.00
2012-7-18,96.5,80.1,72.4,80.0,74.7,71.0,99,85,54,29.86,29.72,2,0,0,0.00
2012-7-19,77.3,70.0,63.8,74.0,66.8,63.0,100,90,66,29.98,29.85,2,0,0,0.30
2012-7-20,66.7,62.4,59.0,66.0,62.2,59.0,100,99,96,30.05,29.94,1,0,0,0.66
2012-7-21,80.2,66.6,59.1,64.0,60.4,57.0,100,83,50,30.11,30.03,1,0,0,0.00
2012-7-22,83.4,68.3,56.2,70.0,62.1,55.0,100,82,57,30.14,30.07,4,0,0,0.00
2012-7-23,83.2,72.1,63.4,77.0,69.6,62.0,100,92,78,30.09,29.75,2,0,0,0.68
2012-7-24,88.7,74.8,66.7,74.0,69.4,62.0,100,85,56,29.76,29.56,4,0,0,0.09
2012-7-25,83.1,70.1,60.5,68.0,59.7,54.0,95,71,46,29.87,29.74,4,0,0,0.01
2012-7-26,85.0,71.0,65.1,78.0,68.7,64.0,100,92,74,29.77,29.59,2,0,0,0.55
2012-7-27,85.2,75.6,68.9,76.0,72.1,69.0,100,90,66,29.85,29.64,1,0,0,0.00
2012-7-28,76.1,70.6,65.6,73.0,69.6,66.0,100,97,88,29.93,29.85,3,0,0,1.03
2012-7-29,75.3,69.0,64.8,69.0,66.8,65.0,100,93,78,30.04,29.88,2,0,0,0.01
2012-7-30,80.1,69.1,61.8,73.0,66.0,62.0,100,90,70,30.11,30.04,1,0,0,0.00
2012-7-31,75.7,68.0,62.1,69.0,65.2,62.0,100,91,74,30.08,29.90,1,0,0,0.00
2012-8-1,82.7,70.8,63.4,74.0,68.7,63.0,100,93,71,29.91,29.82,2,0,0,0.01
2012-8-2,88.4,75.5,67.4,74.0,69.9,67.0,100,85,50,29.89,29.81,1,0,0,0.00
2012-8-3,90.0,77.1,66.6,79.0,72.5,66.0,100,87,61,30.08,29.89,1,0,0,0.00
2012-8-4,89.4,77.7,68.4,79.0,72.7,68.0,100,86,63,30.18,30.08,4,0,0,0.00
2012-8-5,88.5,77.9,71.2,79.0,74.9,71.0,100,91,73,30.17,29.90,2,0,0,0.30
2012-8-6,82.5,73.4,63.3,72.0,67.3,62.0,100,83,53,30.00,29.93,2,0,0,0.04
2012-8-7,83.3,69.2,57.8,69.0,63.0,57.0,100,83,49,30.00,29.93,4,0,0,0.00
2012-8-8,85.1,72.1,61.3,73.0,66.9,61.0,100,85,53,29.97,29.91,1,0,0,0.00
2012-8-9,88.1,75.3,67.9,76.0,71.0,66.0,100,88,58,29.94,29.84,2,0,0,0.00
2012-8-10,76.9,72.8,67.8,77.0,72.5,67.0,100,99,94,29.88,29.74,1,0,0,0.47
2012-8-11,83.8,75.4,69.0,76.0,72.9,69.0,100,92,75,29.88,29.78,8,0,0,0.00
2012-8-12,86.1,75.4,66.5,72.0,69.0,64.0,100,82,50,29.91,29.84,1,0,0,0.01
2012-8-13,83.7,70.5,60.4,69.0,64.4,60.0,100,83,54,29.97,29.91,1,0,0,0.00
2012-8-14,77.2,68.7,60.3,71.0,66.3,60.0,100,92,75,29.96,29.87,1,0,0,0.01
2012-8-15,79.4,69.7,63.9,73.0,68.3,64.0,100,95,78,29.89,29.81,1,0,0,0.81
2012-8-16,82.4,70.3,63.3,69.0,65.7,63.0,100,87,58,29.89,29.82,4,0,0,0.01
2012-8-17,85.5,70.6,58.5,74.0,66.2,58.0,100,87,62,29.87,29.75,2,0,0,0.10
2012-8-18,76.1,66.6,57.7,68.0,62.4,57.0,100,87,62,29.92,29.81,2,0,0,0.59
2012-8-19,71.9,62.0,52.3,62.0,57.8,52.0,99,87,67,29.97,29.90,0,0,0,0.00
2012-8-20,79.6,65.7,54.0,65.0,60.3,54.0,100,84,55,29.92,29.82,1,0,0,0.00
2012-8-21,79.5,67.9,60.5,65.0,61.8,59.0,99,83,51,30.08,29.91,2,0,0,0.00
2012-8-22,83.4,67.8,57.5,67.0,62.0,57.0,100,84,51,30.14,30.07,3,0,0,0.00
2012-8-23,84.8,70.1,58.4,69.0,63.7,58.0,100,82,49,30.14,30.07,1,0,0,0.00
2012-8-24,85.1,70.9,60.5,72.0,65.1,60.0,100,84,51,30.17,30.11,0,0,0,0.00
2012-8-25,81.7,69.4,60.3,70.0,64.3,60.0,100,85,61,30.27,30.17,2,0,0,0.00
2012-8-26,81.1,69.0,59.4,66.0,61.9,56.0,100,81,45,30.31,30.21,3,0,0,0.00
2012-8-27,80.8,69.8,59.4,73.0,66.8,59.0,100,90,73,30.21,29.93,1,0,0,0.00
2012-8-28,83.1,74.4,63.4,73.0,68.8,61.0,100,84,58,29.92,29.76,3,0,0,0.11
2012-8-29,75.6,64.0,55.6,61.0,55.8,51.0,98,77,47,30.01,29.88,6,0,0,0.00
2012-8-30,79.9,62.5,48.6,61.0,55.1,48.0,100,80,39,30.08,30.00,1,0,0,0.00
2012-8-31,87.8,70.5,54.0,68.0,61.8,53.0,99,77,40,30.04,29.86,4,0,0,0.00
2012-9-1,87.9,73.9,63.0,72.0,66.1,61.0,98,79,41,30.06,29.89,3,0,0,0.00
2012-9-2,81.3,70.3,65.3,72.0,66.9,64.0,99,89,64,30.08,29.99,1,0,0,0.16
2012-9-3,71.9,66.7,61.0,67.0,64.0,61.0,100,91,75,30.17,30.08,1,0,0,0.00
2012-9-4,76.6,70.6,65.7,74.0,69.5,65.0,100,96,89,30.10,29.80,2,0,0,0.13
2012-9-5,80.2,73.1,66.4,74.0,71.8,66.0,100,95,75,29.81,29.74,1,0,0,1.25
2012-9-6,80.1,69.1,62.1,72.0,67.0,62.0,100,94,70,29.90,29.80,3,0,0,0.00
2012-9-7,84.7,73.1,64.1,75.0,69.6,64.0,100,90,67,29.91,29.80,1,0,0,0.00
2012-9-8,78.1,70.0,62.2,75.0,69.0,62.0,100,97,82,29.84,29.54,7,0,0,1.24
2012-9-9,74.1,63.8,58.0,63.0,59.7,57.0,100,88,58,29.87,29.74,2,0,0,0.23
2012-9-10,68.4,57.9,50.7,58.0,51.5,46.0,99,81,53,30.12,29.87,4,0,0,0.00
2012-9-11,69.0,54.3,42.2,57.0,48.6,41.0,100,83,55,30.27,30.12,1,0,0,0.00
2012-9-12,77.6,59.7,47.0,63.0,54.1,46.0,100,84,47,30.35,30.28,1,0,0,0.00
2012-9-13,78.7,63.2,50.8,66.0,58.0,50.0,100,85,55,30.36,30.25,2,0,0,0.00
2012-9-14,78.0,64.0,53.7,66.0,59.5,53.0,100,87,58,30.27,30.07,1,0,0,0.00
2012-9-15,69.8,60.2,50.1,60.0,54.9,49.0,99,84,57,30.10,30.02,5,0,0,0.08
2012-9-16,70.8,55.5,44.8,58.0,50.4,44.0,100,85,53,30.11,30.01,3,0,0,0.00
2012-9-17,74.9,57.4,44.4,62.0,53.0,44.0,100,87,56,30.10,30.01,2,0,0,0.00
2012-9-18,72.1,64.7,53.7,70.0,64.3,53.0,100,98,93,30.02,29.58,8,1,0,1.20
2012-9-19,66.6,59.2,48.1,67.0,53.2,46.0,100,82,51,30.18,29.70,4,0,0,0.02
2012-9-20,65.3,54.7,43.2,57.0,51.2,43.0,99,88,72,30.21,30.11,5,0,0,0.00
2012-9-21,71.1,57.8,49.1,58.0,53.2,49.0,100,86,57,30.12,30.01,4,0,0,0.00
2012-9-22,68.5,60.2,50.9,67.0,58.5,50.0,100,94,82,30.00,29.77,2,0,0,0.35
2012-9-23,65.8,56.4,45.0,59.0,51.2,44.0,100,84,52,30.10,29.82,2,0,0,0.00
2012-9-24,64.8,51.0,43.0,51.0,44.8,42.0,100,82,45,30.15,30.07,2,0,0,0.00
2012-9-25,70.1,53.8,39.2,57.0,47.5,38.0,100,82,45,30.17,30.10,5,0,0,0.00
2012-9-26,66.8,61.1,56.4,64.0,59.8,55.0,100,95,85,30.12,29.99,3,0,0,0.03
2012-9-27,71.0,62.4,56.0,63.0,58.6,52.0,100,88,64,30.18,30.01,2,0,0,0.00
2012-9-28,58.8,56.4,54.2,58.0,55.9,51.0,100,98,83,30.16,29.93,2,0,0,0.43
2012-9-29,60.7,56.2,53.6,57.0,54.7,53.0,100,95,84,29.93,29.85,1,0,0,0.39
2012-9-30,65.4,55.6,48.2,56.0,53.5,48.0,100,93,63,29.87,29.73,1,0,0,0.06
2012-10-1,67.5,54.6,46.2,56.0,50.6,46.0,100,87,63,29.95,29.76,2,0,0,0.00
2012-10-2,62.2,56.5,51.1,60.0,56.2,51.0,100,99,91,30.03,29.95,0,0,0,1.20
2012-10-3,69.8,64.3,58.9,69.0,64.2,59.0,100,100,97,30.09,29.98,0,0,0,0.01
2012-10-4,69.4,66.7,63.8,69.0,66.8,64.0,100,100,99,30.12,30.00,0,0,0,0.13
2012-10-5,76.9,64.5,58.0,65.0,61.4,58.0,100,91,59,30.04,29.91,0,0,0,0.00
2012-10-6,73.2,58.8,48.3,64.0,55.1,45.0,100,88,71,29.96,29.72,4,0,0,0.00
2012-10-7,52.4,47.4,40.5,47.0,43.4,39.0,98,86,69,30.09,29.96,2,0,0,0.12
2012-10-8,54.3,45.3,36.5,46.0,42.2,36.0,100,90,64,30.27,30.08,4,0,0,0.01
2012-10-9,55.5,50.6,44.3,51.0,47.9,44.0,98,91,81,30.25,30.09,5,1,0,0.00
2012-10-10,61.3,53.1,49.4,58.0,51.4,42.0,100,93,73,30.09,29.76,3,0,0,0.09
2012-10-11,57.3,48.6,39.8,42.0,38.9,37.0,92,71,47,30.16,29.91,5,1,0,0.00
2012-10-12,49.4,40.7,33.7,44.0,36.1,29.0,100,84,56,30.41,30.04,2,0,0,0.07
2012-10-13,52.6,39.5,26.2,40.0,29.8,25.0,97,72,38,30.51,30.28,3,0,0,0.00
2012-10-14,67.4,55.6,44.1,56.0,50.2,40.0,92,82,65,30.29,29.92,5,0,0,0.00
2012-10-15,68.6,61.6,55.9,63.0,59.1,54.0,100,91,79,29.92,29.61,4,0,0,0.29
2012-10-16,58.2,49.8,37.2,56.0,42.2,36.0,100,77,50,29.90,29.62,8,1,0,0.00
2012-10-17,61.2,44.3,31.6,45.0,38.6,31.0,100,83,47,30.00,29.91,2,0,0,0.00
2012-10-18,65.1,49.8,36.0,54.0,45.3,35.0,100,86,58,30.05,29.97,6,0,0,0.00
2012-10-19,64.8,61.9,56.1,65.0,61.7,54.0,100,99,93,29.97,29.66,4,1,0,0.99
2012-10-20,71.7,60.2,46.3,64.0,53.8,42.0,100,81,46,29.78,29.62,5,0,0,0.00
2012-10-21,64.1,53.2,44.1,45.0,42.0,40.0,92,68,44,29.96,29.79,7,1,0,0.00
2012-10-22,66.8,54.1,42.1,46.0,43.4,40.0,95,69,44,30.06,29.96,5,0,0,0.00
2012-10-23,59.6,49.6,40.8,53.0,47.7,40.0,99,93,66,30.12,30.04,0,0,0,0.20
2012-10-24,53.5,51.7,48.8,52.0,50.5,48.0,100,96,84,30.20,30.09,1,0,0,0.07
2012-10-25,59.0,53.4,49.2,53.0,51.2,49.0,100,92,77,30.27,30.20,2,0,0,0.03
2012-10-26,62.0,56.9,53.0,57.0,54.7,52.0,97,92,84,30.23,30.11,2,0,0,0.00
2012-10-27,63.0,58.0,54.5,57.0,55.4,53.0,99,91,78,30.10,29.93,3,0,0,0.00
2012-10-28,56.2,54.4,51.9,54.0,48.3,42.0,91,80,62,29.93,29.68,7,2,0,0.00
2012-10-29,62.9,54.7,51.1,59.0,51.9,47.0,97,90,84,29.68,28.75,14,6,0,0.22
2012-11-22,54.4,43.1,31.1,42.0,35.8,30.0,95,77,57,30.22,30.13,1,0,0,0.00
2012-11-23,55.9,35.8,27.4,43.0,32.6,27.0,100,89,55,30.12,29.80,4,0,0,0.01
2012-12-7,37.8,35.7,28.7,36.0,34.6,27.0,99,95,83,30.21,30.03,0,0,0,0.17
2012-12-8,46.0,41.9,36.2,46.0,42.0,36.0,100,100,99,30.02,29.85,1,0,0,0.25
2012-12-9,45.0,40.9,38.4,45.0,38.4,34.0,100,91,75,30.25,29.98,4,0,0,0.10
2012-12-10,53.6,46.9,38.9,54.0,46.8,38.0,100,100,98,30.03,29.53,6,0,0,0.04
2012-12-11,45.2,40.1,30.1,42.0,34.4,28.0,96,81,59,30.17,29.59,9,1,0,0.05
2012-12-12,40.9,31.0,25.8,30.0,26.7,25.0,98,85,54,30.44,30.17,2,0,0,0.00
2012-12-13,41.1,30.1,23.9,31.0,25.9,23.0,97,85,59,30.49,30.32,4,0,0,0.00
2012-12-14,46.0,30.4,20.2,31.0,24.4,19.0,99,81,43,30.31,30.12,5,0,0,0.01
2012-12-15,42.5,30.8,21.9,33.0,26.8,21.0,98,86,64,30.32,30.22,2,0,0,0.00
2012-12-16,35.2,34.5,30.9,34.0,32.7,29.0,97,93,86,30.23,29.95,5,1,0,0.02
2012-12-17,39.1,36.9,34.8,39.0,36.5,34.0,99,98,96,29.94,29.67,4,1,0,0.25
2012-12-18,47.5,42.6,39.1,47.0,41.8,37.0,100,97,87,29.65,29.44,5,1,0,0.55
2012-12-19,45.6,39.8,32.5,37.0,29.7,27.0,87,68,53,30.09,29.55,7,2,0,0.00
2012-12-20,41.0,35.0,25.8,38.0,29.4,24.0,96,80,65,30.20,29.86,4,0,0,0.04
2012-12-21,55.3,42.9,35.8,55.0,39.6,30.0,100,88,75,29.85,29.05,10,2,0,1.40
2012-12-22,35.8,33.4,31.3,32.0,24.9,19.0,96,72,58,29.77,29.26,16,3,0,0.02
2012-12-23,38.2,33.3,28.0,27.0,23.8,21.0,78,68,61,29.92,29.75,7,1,0,0.00
2012-12-24,35.8,29.4,21.8,29.0,23.1,19.0,95,78,60,30.08,29.93,2,0,0,0.00
2012-12-25,36.0,31.3,26.8,32.0,28.4,23.0,96,89,80,30.25,29.92,4,0,0,0.10
2012-12-26,33.4,27.3,22.1,32.0,23.1,18.0,97,85,68,30.30,29.58,11,2,0,0.00
2012-12-27,37.1,33.4,28.5,37.0,30.8,22.0,100,90,77,29.78,29.32,11,4,0,0.42
2012-12-28,34.6,29.1,23.1,26.0,23.0,20.0,91,78,69,30.06,29.78,8,1,0,0.01
2012-12-29,29.5,26.6,21.3,28.0,25.0,20.0,96,93,86,30.04,29.50,4,0,0,0.00
2012-12-30,31.4,27.2,23.4,26.0,18.3,13.0,94,70,52,30.10,29.56,9,2,0,0.01
2012-12-31,34.6,28.8,19.3,25.0,20.6,12.0,82,71,60,30.13,29.84,10,0,0,0.01
2013-1-1,36.2,32.2,21.1,28.0,21.7,9.0,76,65,53,29.98,29.81,8,1,0,0.03